Time;durP1;ratioP1;P1;durP2;ratioP2;P2;SDS_P1;SDS_P2;PMS_P1;PMS_P2;Temp;Humidity;BMP_temperature;BMP_pressure;BME280_temperature;BME280_humidity;BME280_pressure;Samples;Min_cycle;Max_cycle;Signal;HPM_P1;HPM_P2
2023/07/20 00:01:27;;;;;;;5.97;2.83;;;16.90;99.90;;;;;;4965398;28;20053;-61
2023/07/20 00:03:56;;;;;;;6.50;3.88;;;17.00;99.90;;;;;;4963650;28;20110;-60
2023/07/20 00:06:27;;;;;;;10.35;3.67;;;17.00;99.90;;;;;;4965505;28;20488;-62
2023/07/20 00:08:56;;;;;;;12.00;3.13;;;17.00;99.90;;;;;;4965487;28;20035;-62
2023/07/20 00:11:26;;;;;;;4.43;3.17;;;17.10;99.90;;;;;;4964059;28;20027;-62
2023/07/20 00:13:52;;;;;;;7.72;3.20;;;17.30;99.90;;;;;;4964711;28;20031;-62
2023/07/20 00:16:17;;;;;;;10.48;3.15;;;17.40;99.90;;;;;;4963476;28;20035;-63
2023/07/20 00:18:43;;;;;;;9.68;3.13;;;17.40;99.90;;;;;;4965081;28;20027;-62
2023/07/20 00:21:09;;;;;;;7.45;3.60;;;17.40;99.90;;;;;;4971801;28;20031;-62
2023/07/20 00:23:35;;;;;;;8.68;3.85;;;17.40;99.90;;;;;;4971966;28;20031;-62
2023/07/20 00:26:00;;;;;;;6.47;3.28;;;17.50;99.90;;;;;;4971534;28;20038;-63
2023/07/20 00:28:26;;;;;;;10.63;3.85;;;17.60;99.90;;;;;;4971138;28;20102;-63
2023/07/20 00:30:51;;;;;;;6.85;3.58;;;17.60;99.90;;;;;;4966848;28;20504;-62
2023/07/20 00:33:18;;;;;;;7.68;3.63;;;17.70;99.90;;;;;;4967216;28;20023;-63
2023/07/20 00:35:43;;;;;;;13.02;4.13;;;17.80;99.90;;;;;;4971315;28;20452;-63
2023/07/20 00:38:10;;;;;;;8.63;3.88;;;17.70;99.90;;;;;;4971436;28;20081;-62
2023/07/20 00:40:39;;;;;;;7.65;3.60;;;17.70;99.90;;;;;;4971550;28;20034;-62
2023/07/20 00:43:05;;;;;;;9.13;3.72;;;17.80;99.90;;;;;;4962401;28;20243;-63
2023/07/20 00:45:32;;;;;;;8.68;3.80;;;17.80;99.90;;;;;;4967448;28;20023;-63
2023/07/20 00:47:58;;;;;;;9.68;3.40;;;17.80;99.90;;;;;;4964078;28;20041;-62
2023/07/20 00:50:25;;;;;;;7.40;3.35;;;17.70;99.90;;;;;;4968781;28;20019;-61
2023/07/20 00:52:51;;;;;;;20.95;4.10;;;17.70;99.90;;;;;;4963215;28;20023;-60
2023/07/20 00:55:18;;;;;;;5.57;3.35;;;17.70;99.90;;;;;;4967449;28;20030;-62
2023/07/20 00:57:44;;;;;;;8.02;3.72;;;17.60;99.90;;;;;;4965827;28;20042;-63
2023/07/20 01:00:10;;;;;;;13.90;3.72;;;17.70;99.90;;;;;;4976475;28;20027;-62
2023/07/20 01:02:36;;;;;;;7.53;3.33;;;17.60;99.90;;;;;;4963082;28;20027;-63
2023/07/20 01:05:03;;;;;;;3.95;2.60;;;17.60;99.90;;;;;;4967262;28;20050;-63
2023/07/20 01:07:35;;;;;;;10.90;3.33;;;17.60;99.90;;;;;;4964423;28;20485;-62
2023/07/20 01:10:09;;;;;;;9.23;3.90;;;17.60;99.90;;;;;;4969084;28;20062;-62
2023/07/20 01:12:43;;;;;;;6.22;3.03;;;17.60;99.90;;;;;;4966918;28;20082;-62
2023/07/20 01:15:09;;;;;;;8.00;3.03;;;17.70;99.90;;;;;;4961286;28;20039;-62
2023/07/20 01:17:35;;;;;;;7.47;2.78;;;17.60;99.90;;;;;;4975014;28;20026;-63
2023/07/20 01:20:01;;;;;;;8.15;2.80;;;17.70;99.90;;;;;;4966590;28;20486;-62
2023/07/20 01:22:35;;;;;;;6.10;2.47;;;17.60;99.90;;;;;;4966556;28;20110;-62
2023/07/20 01:25:31;;;;;;;6.25;2.67;;;17.70;99.90;;;;;;4963715;28;20033;-63
2023/07/20 01:28:11;;;;;;;6.13;2.38;;;17.80;99.90;;;;;;4968957;28;20081;-60
2023/07/20 01:30:46;;;;;;;5.40;2.80;;;17.60;99.90;;;;;;4968294;28;20035;-63
2023/07/20 01:33:15;;;;;;;9.40;3.10;;;17.60;99.90;;;;;;4963434;28;20027;-63
2023/07/20 01:35:43;;;;;;;9.68;3.45;;;17.50;99.90;;;;;;4968236;28;20035;-62
2023/07/20 01:38:10;;;;;;;9.73;2.92;;;17.50;99.90;;;;;;4971631;28;20034;-62
2023/07/20 01:40:36;;;;;;;8.23;3.42;;;17.40;99.90;;;;;;4966525;28;20553;-62
2023/07/20 01:43:03;;;;;;;5.80;3.60;;;17.40;99.90;;;;;;4963348;28;20066;-62
2023/07/20 01:45:28;;;;;;;6.00;3.22;;;17.40;99.90;;;;;;4971178;28;20043;-62
2023/07/20 01:47:54;;;;;;;11.48;3.10;;;17.30;99.90;;;;;;4968952;28;20033;-61
2023/07/20 01:50:19;;;;;;;7.10;3.42;;;17.30;99.90;;;;;;4961408;28;20042;-63
2023/07/20 01:52:45;;;;;;;5.65;3.42;;;17.30;99.90;;;;;;4963978;28;20070;-62
2023/07/20 01:55:10;;;;;;;6.43;3.33;;;17.20;99.90;;;;;;4963502;28;20026;-62
2023/07/20 01:57:36;;;;;;;5.82;3.08;;;17.20;99.90;;;;;;4964102;28;20492;-62
2023/07/20 02:00:02;;;;;;;5.97;3.20;;;17.20;99.90;;;;;;4968932;28;20513;-62
2023/07/20 02:02:28;;;;;;;9.32;3.58;;;17.20;99.90;;;;;;4968501;28;20105;-60
2023/07/20 02:04:54;;;;;;;15.57;3.83;;;17.20;99.90;;;;;;4967978;28;20557;-63
2023/07/20 02:07:19;;;;;;;10.75;3.88;;;17.20;99.90;;;;;;4968067;28;20024;-59
2023/07/20 02:09:45;;;;;;;12.00;4.65;;;17.20;99.90;;;;;;4964433;28;20038;-62
2023/07/20 02:12:10;;;;;;;6.00;3.53;;;17.20;99.90;;;;;;4964790;28;20093;-62
2023/07/20 02:14:36;;;;;;;8.10;4.00;;;17.20;99.90;;;;;;4970567;28;20158;-63
2023/07/20 02:17:01;;;;;;;8.18;3.70;;;17.20;99.90;;;;;;4968734;28;20038;-62
2023/07/20 02:19:29;;;;;;;8.50;3.95;;;17.10;99.90;;;;;;4967103;28;20020;-62
2023/07/20 02:21:54;;;;;;;7.13;3.92;;;17.00;99.90;;;;;;4965666;28;20022;-61
2023/07/20 02:24:20;;;;;;;9.75;3.88;;;17.00;99.90;;;;;;4956995;28;20023;-62
2023/07/20 02:26:45;;;;;;;8.70;4.03;;;17.00;99.90;;;;;;4966485;28;20493;-63
2023/07/20 02:29:14;;;;;;;6.70;3.90;;;17.00;99.90;;;;;;4964058;28;20031;-63
2023/07/20 02:31:39;;;;;;;9.48;3.72;;;16.90;99.90;;;;;;4961793;28;20116;-63
2023/07/20 02:34:08;;;;;;;11.48;4.50;;;16.90;99.90;;;;;;4968427;28;20094;-62
2023/07/20 02:36:35;;;;;;;9.45;4.00;;;16.80;99.90;;;;;;4971402;28;20033;-60
2023/07/20 02:39:02;;;;;;;12.13;4.50;;;16.80;99.90;;;;;;4968942;28;20113;-62
2023/07/20 02:41:27;;;;;;;13.02;4.78;;;16.80;99.90;;;;;;4969250;28;20023;-62
2023/07/20 02:43:53;;;;;;;12.40;4.63;;;16.80;99.90;;;;;;4963180;28;20543;-62
2023/07/20 02:46:18;;;;;;;7.90;4.05;;;16.70;99.90;;;;;;4962171;28;20035;-62
2023/07/20 02:48:44;;;;;;;8.98;4.13;;;16.70;99.90;;;;;;4966130;28;20031;-63
2023/07/20 02:51:11;;;;;;;12.75;4.47;;;16.60;99.90;;;;;;4972586;28;20027;-62
2023/07/20 02:53:36;;;;;;;5.47;3.72;;;16.70;99.90;;;;;;4972550;28;20030;-62
2023/07/20 02:56:02;;;;;;;8.75;3.67;;;16.60;99.90;;;;;;4966403;28;20039;-62
2023/07/20 02:58:28;;;;;;;8.15;4.28;;;16.70;99.90;;;;;;4962082;28;20035;-62
2023/07/20 03:00:53;;;;;;;6.82;3.50;;;16.60;99.90;;;;;;4971033;28;20393;-62
2023/07/20 03:03:19;;;;;;;11.80;4.30;;;16.60;99.90;;;;;;4970845;28;20037;-62
2023/07/20 03:05:45;;;;;;;7.85;4.22;;;16.60;99.90;;;;;;4968651;28;20098;-62
2023/07/20 03:08:11;;;;;;;7.18;3.60;;;16.50;99.90;;;;;;4966987;28;20039;-62
2023/07/20 03:10:40;;;;;;;8.00;3.65;;;16.50;99.90;;;;;;4965373;28;20031;-63
2023/07/20 03:13:06;;;;;;;8.00;3.38;;;16.50;99.90;;;;;;4963796;28;20031;-63
2023/07/20 03:15:32;;;;;;;8.70;3.85;;;16.40;99.90;;;;;;4965220;28;20110;-63
2023/07/20 03:17:58;;;;;;;5.95;3.78;;;16.40;99.90;;;;;;4968798;28;20114;-63
2023/07/20 03:20:24;;;;;;;12.80;4.20;;;16.40;99.90;;;;;;4969746;28;20547;-63
2023/07/20 03:22:49;;;;;;;8.45;3.63;;;16.40;99.90;;;;;;4972306;28;20074;-63
2023/07/20 03:25:15;;;;;;;10.85;3.45;;;16.40;99.90;;;;;;4970888;28;20109;-62
2023/07/20 03:27:40;;;;;;;9.15;4.10;;;16.40;99.90;;;;;;4966362;28;20106;-62
2023/07/20 03:30:09;;;;;;;7.95;3.85;;;16.40;99.90;;;;;;4962362;28;20042;-62
2023/07/20 03:32:35;;;;;;;7.78;3.58;;;16.30;99.90;;;;;;4968876;28;20065;-63
2023/07/20 03:35:01;;;;;;;11.02;3.42;;;16.30;99.90;;;;;;4972352;28;20049;-64
2023/07/20 03:37:26;;;;;;;12.43;3.83;;;16.30;99.90;;;;;;4973264;28;20102;-63
2023/07/20 03:39:52;;;;;;;7.35;3.83;;;16.30;99.90;;;;;;4972874;28;20042;-63
2023/07/20 03:42:17;;;;;;;7.72;3.85;;;16.40;99.90;;;;;;4969540;28;20037;-63
2023/07/20 03:44:43;;;;;;;12.05;3.55;;;16.40;99.90;;;;;;4964037;28;20034;-63
2023/07/20 03:47:09;;;;;;;9.52;3.78;;;16.40;99.90;;;;;;4970868;28;20527;-62
2023/07/20 03:49:35;;;;;;;7.93;2.85;;;16.40;99.90;;;;;;4976681;28;20093;-63
2023/07/20 03:52:03;;;;;;;7.78;3.03;;;16.50;99.90;;;;;;4971318;28;20042;-63
2023/07/20 03:54:29;;;;;;;8.32;3.10;;;16.40;99.90;;;;;;4971899;28;20069;-62
2023/07/20 03:56:54;;;;;;;8.30;3.40;;;16.50;99.90;;;;;;4970454;28;20026;-63
2023/07/20 03:59:20;;;;;;;8.70;3.50;;;16.50;99.90;;;;;;4962759;28;20030;-63
2023/07/20 04:01:46;;;;;;;7.13;3.35;;;16.50;99.90;;;;;;4971944;28;20057;-63
2023/07/20 04:04:11;;;;;;;8.93;3.35;;;16.50;99.90;;;;;;4971002;28;20058;-63
2023/07/20 04:06:37;;;;;;;8.15;2.42;;;16.60;99.90;;;;;;4967963;28;20041;-63
2023/07/20 04:09:05;;;;;;;6.80;3.00;;;16.60;99.90;;;;;;4964778;28;20043;-63
2023/07/20 04:11:30;;;;;;;8.50;4.32;;;16.60;99.90;;;;;;4969749;28;20034;-62
2023/07/20 04:13:56;;;;;;;8.60;3.53;;;16.60;99.90;;;;;;4967506;28;20035;-61
2023/07/20 04:16:22;;;;;;;4.60;2.58;;;16.60;99.90;;;;;;4971695;28;20031;-63
2023/07/20 04:18:47;;;;;;;8.55;3.60;;;16.70;99.90;;;;;;4967522;28;20106;-61
2023/07/20 04:21:13;;;;;;;11.77;3.85;;;16.70;99.90;;;;;;4969976;28;20043;-63
2023/07/20 04:23:38;;;;;;;16.20;5.00;;;16.70;99.90;;;;;;4963898;28;20096;-62
2023/07/20 04:26:04;;;;;;;7.43;3.75;;;16.70;99.90;;;;;;4967214;28;20023;-62
2023/07/20 04:28:30;;;;;;;9.90;3.95;;;16.70;99.90;;;;;;4968974;28;20077;-61
2023/07/20 04:31:12;;;;;;;11.27;3.38;;;16.70;99.90;;;;;;4971380;28;20077;-63
2023/07/20 04:33:38;;;;;;;11.02;3.78;;;16.80;99.90;;;;;;4967792;28;20109;-62
2023/07/20 04:36:04;;;;;;;6.05;3.72;;;16.70;99.90;;;;;;4971132;28;20113;-62
2023/07/20 04:38:29;;;;;;;7.03;3.47;;;16.80;99.90;;;;;;4964334;28;20418;-60
2023/07/20 04:40:55;;;;;;;11.43;4.05;;;16.80;99.90;;;;;;4964754;28;20031;-62
2023/07/20 04:43:21;;;;;;;10.10;3.60;;;16.80;99.90;;;;;;4970335;28;20057;-61
2023/07/20 04:45:46;;;;;;;11.90;3.60;;;16.80;99.90;;;;;;4971848;28;20113;-62
2023/07/20 04:48:14;;;;;;;13.43;4.13;;;16.80;99.90;;;;;;4969646;28;20075;-62
2023/07/20 04:50:45;;;;;;;9.48;4.55;;;16.80;99.90;;;;;;4970589;28;20035;-61
2023/07/20 04:53:11;;;;;;;8.88;3.92;;;16.90;99.90;;;;;;4968369;28;20126;-63
2023/07/20 04:55:38;;;;;;;12.15;4.25;;;16.90;99.90;;;;;;4960130;28;20053;-60
2023/07/20 04:58:05;;;;;;;9.27;4.57;;;17.00;99.90;;;;;;4971077;28;20033;-61
2023/07/20 05:00:35;;;;;;;9.65;4.57;;;17.00;99.90;;;;;;4967297;28;20097;-63
2023/07/20 05:03:01;;;;;;;8.70;4.10;;;16.90;99.90;;;;;;4967119;28;20023;-62
2023/07/20 05:05:26;;;;;;;16.98;4.82;;;17.00;99.90;;;;;;4971283;28;20034;-62
2023/07/20 05:07:52;;;;;;;15.88;4.13;;;17.00;99.90;;;;;;4971278;28;20031;-62
2023/07/20 05:10:17;;;;;;;13.57;5.25;;;17.00;99.90;;;;;;4969341;28;20404;-63
2023/07/20 05:12:43;;;;;;;11.25;4.68;;;17.00;99.90;;;;;;4968347;28;20023;-60
2023/07/20 05:15:09;;;;;;;14.93;4.40;;;17.00;99.90;;;;;;4972094;28;20393;-58
2023/07/20 05:17:34;;;;;;;11.85;4.85;;;17.10;99.90;;;;;;4970665;28;20113;-62
2023/07/20 05:20:00;;;;;;;19.42;5.38;;;17.10;99.90;;;;;;4969700;28;20058;-63
2023/07/20 05:22:26;;;;;;;10.73;4.85;;;17.10;99.90;;;;;;4970238;28;20453;-61
2023/07/20 05:24:51;;;;;;;13.60;4.65;;;17.10;99.90;;;;;;4970511;28;20034;-62
2023/07/20 05:27:17;;;;;;;13.38;5.25;;;17.10;99.90;;;;;;4965138;28;20034;-62
2023/07/20 05:29:46;;;;;;;11.23;4.20;;;17.10;99.90;;;;;;4968429;28;20039;-62
2023/07/20 05:32:12;;;;;;;15.15;4.55;;;17.20;99.90;;;;;;4970222;28;20031;-60
2023/07/20 05:34:38;;;;;;;10.00;4.70;;;17.20;99.90;;;;;;4968380;28;20484;-62
2023/07/20 05:37:04;;;;;;;7.20;3.58;;;17.10;99.90;;;;;;4970349;28;20035;-63
2023/07/20 05:39:29;;;;;;;11.52;3.92;;;17.20;99.90;;;;;;4969675;28;20422;-62
2023/07/20 05:41:55;;;;;;;10.00;4.18;;;17.20;99.90;;;;;;4961493;28;20074;-62
2023/07/20 05:44:20;;;;;;;10.80;4.32;;;17.20;99.90;;;;;;4966667;28;20117;-61
2023/07/20 05:46:46;;;;;;;17.98;4.47;;;17.20;99.90;;;;;;4970996;28;20041;-63
2023/07/20 05:49:11;;;;;;;12.52;4.10;;;17.10;99.90;;;;;;4967164;28;20416;-62
2023/07/20 05:51:37;;;;;;;13.55;4.60;;;17.20;99.90;;;;;;4967974;28;20097;-63
2023/07/20 05:54:02;;;;;;;10.48;3.70;;;17.30;99.90;;;;;;4966346;28;20096;-62
2023/07/20 05:56:28;;;;;;;8.63;4.05;;;17.30;99.90;;;;;;4969439;28;20041;-62
2023/07/20 05:58:53;;;;;;;13.68;4.35;;;17.30;99.90;;;;;;4970394;28;20050;-62
2023/07/20 06:01:19;;;;;;;9.02;3.97;;;17.40;99.90;;;;;;4963143;28;20106;-62
2023/07/20 06:03:44;;;;;;;14.90;5.85;;;17.40;99.90;;;;;;4965897;28;20023;-63
2023/07/20 06:06:11;;;;;;;16.48;8.27;;;17.50;99.90;;;;;;4970099;28;20027;-62
2023/07/20 06:08:37;;;;;;;10.98;7.03;;;17.50;99.90;;;;;;4969506;28;20030;-62
2023/07/20 06:11:03;;;;;;;19.00;9.27;;;17.50;99.90;;;;;;4965132;28;20121;-62
2023/07/20 06:13:28;;;;;;;17.17;7.22;;;17.50;99.90;;;;;;4967390;28;20029;-63
2023/07/20 06:15:55;;;;;;;16.38;8.27;;;17.50;99.90;;;;;;4970014;28;20089;-62
2023/07/20 06:18:22;;;;;;;11.80;7.85;;;17.60;99.90;;;;;;4969949;28;20045;-61
2023/07/20 06:20:51;;;;;;;13.55;7.55;;;17.60;99.90;;;;;;4969852;28;20026;-62
2023/07/20 06:23:20;;;;;;;19.55;8.75;;;17.70;99.90;;;;;;4968552;28;20110;-60
2023/07/20 06:25:46;;;;;;;16.05;9.38;;;17.70;99.90;;;;;;4962731;28;20042;-60
2023/07/20 06:28:12;;;;;;;13.70;7.97;;;17.60;99.90;;;;;;4965718;28;20031;-63
2023/07/20 06:30:38;;;;;;;16.67;10.18;;;17.60;99.90;;;;;;4960939;28;20039;-62
2023/07/20 06:33:03;;;;;;;16.40;10.07;;;17.60;99.90;;;;;;4970312;28;20110;-62
2023/07/20 06:35:29;;;;;;;18.73;10.80;;;17.50;99.90;;;;;;4968596;28;20077;-62
2023/07/20 06:37:54;;;;;;;16.70;10.52;;;17.60;99.90;;;;;;4964320;28;20085;-61
2023/07/20 06:40:21;;;;;;;20.40;11.68;;;17.70;99.90;;;;;;4959083;28;20071;-63
2023/07/20 06:42:47;;;;;;;24.63;11.75;;;17.70;99.90;;;;;;4957576;28;20497;-61
2023/07/20 06:45:12;;;;;;;18.17;11.35;;;17.80;99.90;;;;;;4962072;28;20049;-62
2023/07/20 06:47:41;;;;;;;18.67;11.48;;;17.90;99.90;;;;;;4966243;28;20121;-62
2023/07/20 06:50:07;;;;;;;16.33;9.73;;;17.80;99.90;;;;;;4965151;28;20030;-62
2023/07/20 06:52:33;;;;;;;16.52;8.82;;;17.90;99.90;;;;;;4969304;28;20613;-61
2023/07/20 06:54:59;;;;;;;20.17;8.80;;;18.00;99.90;;;;;;4966987;28;20038;-61
2023/07/20 06:57:25;;;;;;;16.15;10.23;;;18.10;99.90;;;;;;4967728;28;20103;-61
2023/07/20 06:59:51;;;;;;;17.67;10.18;;;18.10;99.90;;;;;;4971727;28;20030;-62
2023/07/20 07:02:17;;;;;;;19.17;10.20;;;18.20;99.90;;;;;;4967052;28;20038;-61
2023/07/20 07:04:43;;;;;;;18.50;9.57;;;18.20;99.90;;;;;;4966199;28;20081;-62
2023/07/20 07:07:09;;;;;;;14.85;9.35;;;18.10;99.90;;;;;;4965436;28;20051;-65
2023/07/20 07:09:35;;;;;;;16.83;9.75;;;18.00;99.90;;;;;;4968119;28;20535;-63
2023/07/20 07:12:01;;;;;;;15.18;9.13;;;18.00;99.90;;;;;;4969635;28;20050;-61
2023/07/20 07:14:26;;;;;;;14.70;7.90;;;18.10;99.90;;;;;;4964852;28;20037;-64
2023/07/20 07:16:52;;;;;;;12.52;8.98;;;18.20;99.90;;;;;;4963552;28;20063;-63
2023/07/20 07:19:18;;;;;;;15.73;8.27;;;18.40;99.90;;;;;;4965054;28;20511;-63
2023/07/20 07:21:43;;;;;;;16.08;8.68;;;18.50;99.90;;;;;;4961197;28;20050;-64
2023/07/20 07:24:09;;;;;;;12.40;7.22;;;18.60;99.90;;;;;;4968764;28;20066;-63
2023/07/20 07:26:36;;;;;;;13.43;7.15;;;18.60;99.90;;;;;;4973050;28;20565;-64
2023/07/20 07:29:01;;;;;;;12.38;7.07;;;18.60;99.90;;;;;;4970138;28;20035;-63
2023/07/20 07:31:30;;;;;;;13.68;7.40;;;18.70;99.90;;;;;;4965453;28;20038;-64
2023/07/20 07:33:55;;;;;;;15.48;7.07;;;18.80;99.90;;;;;;4969354;28;20629;-63
2023/07/20 07:36:21;;;;;;;15.05;6.50;;;18.90;99.90;;;;;;4971406;28;20034;-64
2023/07/20 07:38:46;;;;;;;19.73;11.20;;;18.80;99.90;;;;;;4965844;28;20020;-63
2023/07/20 07:41:12;;;;;;;15.52;8.63;;;18.70;99.90;;;;;;4969707;28;20035;-63
2023/07/20 07:43:38;;;;;;;14.18;7.72;;;18.60;99.90;;;;;;4970956;28;20035;-63
2023/07/20 07:46:04;;;;;;;13.07;7.75;;;18.70;99.90;;;;;;4973503;28;20117;-63
2023/07/20 07:48:29;;;;;;;9.07;6.68;;;18.80;99.90;;;;;;4969572;28;20596;-63
2023/07/20 07:50:55;;;;;;;18.77;6.22;;;18.70;99.90;;;;;;4967073;28;20816;-62
2023/07/20 07:53:20;;;;;;;12.50;5.57;;;18.70;99.90;;;;;;4971495;28;20481;-63
2023/07/20 07:55:49;;;;;;;13.93;4.97;;;18.90;99.90;;;;;;4971876;28;20043;-63
2023/07/20 07:58:15;;;;;;;11.32;5.82;;;19.00;99.90;;;;;;4968552;28;20077;-64
2023/07/20 08:00:40;;;;;;;19.38;6.18;;;19.20;99.90;;;;;;4965660;28;20027;-63
2023/07/20 08:03:06;;;;;;;8.23;4.88;;;19.20;99.90;;;;;;4967027;28;20262;-61
2023/07/20 08:05:33;;;;;;;9.00;4.72;;;19.30;99.90;;;;;;4972219;28;20459;-63
2023/07/20 08:07:58;;;;;;;7.50;4.65;;;19.50;99.90;;;;;;4964393;28;20501;-63
2023/07/20 08:10:24;;;;;;;10.50;4.13;;;19.60;99.90;;;;;;4967588;28;20073;-64
2023/07/20 08:12:49;;;;;;;8.23;4.97;;;19.60;99.90;;;;;;4966524;28;20093;-64
2023/07/20 08:15:15;;;;;;;17.23;6.15;;;19.40;99.90;;;;;;4969971;28;20049;-65
2023/07/20 08:17:43;;;;;;;8.27;4.63;;;19.20;99.90;;;;;;4965017;28;20027;-63
2023/07/20 08:20:12;;;;;;;10.50;4.80;;;19.20;99.90;;;;;;4965397;28;20104;-63
2023/07/20 08:22:38;;;;;;;8.05;4.28;;;19.40;99.90;;;;;;4966781;28;20029;-64
2023/07/20 08:25:04;;;;;;;6.88;4.78;;;19.40;99.90;;;;;;4970570;28;20129;-63
2023/07/20 08:27:29;;;;;;;10.13;4.63;;;19.40;99.90;;;;;;4968256;28;20405;-62
2023/07/20 08:29:55;;;;;;;9.80;5.10;;;19.40;99.90;;;;;;4968462;28;20030;-64
2023/07/20 08:32:20;;;;;;;9.13;4.90;;;19.60;99.90;;;;;;4967398;28;20022;-63
2023/07/20 08:34:46;;;;;;;6.82;4.25;;;19.80;99.90;;;;;;4964367;28;20026;-60
2023/07/20 08:37:11;;;;;;;6.22;3.85;;;19.90;99.90;;;;;;4967641;28;20027;-63
2023/07/20 08:39:37;;;;;;;5.82;3.55;;;20.00;99.90;;;;;;4967573;28;20034;-62
2023/07/20 08:42:05;;;;;;;4.00;3.42;;;19.90;99.90;;;;;;4965295;28;20492;-64
2023/07/20 08:44:33;;;;;;;5.13;3.45;;;20.00;99.90;;;;;;4966484;28;20429;-63
2023/07/20 08:47:02;;;;;;;9.73;4.30;;;20.10;99.90;;;;;;4966578;28;20035;-62
2023/07/20 08:49:28;;;;;;;6.38;3.70;;;20.20;99.90;;;;;;4967391;28;20038;-63
2023/07/20 08:51:53;;;;;;;11.15;4.28;;;20.30;99.90;;;;;;4962904;28;20023;-64
2023/07/20 08:54:19;;;;;;;5.55;3.47;;;20.40;99.90;;;;;;4966735;28;20118;-64
2023/07/20 08:56:46;;;;;;;8.52;3.45;;;20.40;99.90;;;;;;4963929;28;20354;-64
2023/07/20 08:59:16;;;;;;;4.53;3.33;;;20.50;99.90;;;;;;4967341;28;20031;-61
2023/07/20 09:01:43;;;;;;;6.68;3.05;;;20.50;99.90;;;;;;4965904;28;20029;-63
2023/07/20 09:04:08;;;;;;;7.90;3.00;;;20.50;99.90;;;;;;4966627;28;20027;-64
2023/07/20 09:06:35;;;;;;;2.88;2.50;;;20.50;99.90;;;;;;4966080;28;20073;-63
2023/07/20 09:09:00;;;;;;;4.32;3.10;;;20.60;99.90;;;;;;4968935;28;20035;-64
2023/07/20 09:11:26;;;;;;;5.80;3.47;;;20.50;99.90;;;;;;4969837;28;20098;-62
2023/07/20 09:14:08;;;;;;;4.38;3.15;;;20.60;99.90;;;;;;4970736;28;20037;-61
2023/07/20 09:16:48;;;;;;;4.15;3.28;;;20.50;99.90;;;;;;4967756;28;20042;-63
2023/07/20 09:19:18;;;;;;;7.18;3.25;;;20.50;99.90;;;;;;4968155;28;20027;-64
2023/07/20 09:21:50;;;;;;;4.93;3.33;;;20.50;99.90;;;;;;4965181;28;20090;-64
2023/07/20 09:24:19;;;;;;;6.95;2.65;;;20.70;99.90;;;;;;4964021;28;20061;-63
2023/07/20 09:26:50;;;;;;;6.85;3.22;;;20.90;99.90;;;;;;4968445;28;20126;-61
2023/07/20 09:29:19;;;;;;;15.98;4.15;;;20.90;99.90;;;;;;4968252;28;20097;-57
2023/07/20 09:32:01;;;;;;;4.43;2.83;;;20.90;99.90;;;;;;4962768;28;20027;-59
2023/07/20 09:34:27;;;;;;;5.22;3.17;;;20.80;99.90;;;;;;4969322;28;20393;-58
2023/07/20 09:36:53;;;;;;;4.90;2.33;;;21.10;99.90;;;;;;4964576;28;20034;-59
2023/07/20 09:39:19;;;;;;;5.43;2.35;;;21.40;99.90;;;;;;4963973;28;20016;-60
2023/07/20 09:41:45;;;;;;;4.90;2.50;;;21.70;99.90;;;;;;4967597;28;20082;-58
2023/07/20 09:44:11;;;;;;;6.05;2.63;;;21.80;99.90;;;;;;4968346;28;20046;-59
2023/07/20 09:46:47;;;;;;;5.15;2.20;;;21.80;99.90;;;;;;4962617;28;20034;-58
2023/07/20 09:49:14;;;;;;;4.15;1.70;;;21.70;99.90;;;;;;4966833;28;20433;-56
2023/07/20 09:51:40;;;;;;;5.55;2.70;;;21.70;99.90;;;;;;4965166;28;20042;-59
2023/07/20 09:54:06;;;;;;;7.65;2.22;;;21.80;99.90;;;;;;4969221;28;20038;-59
2023/07/20 09:56:33;;;;;;;3.35;2.03;;;21.90;99.90;;;;;;4968064;28;20030;-60
2023/07/20 09:58:59;;;;;;;5.32;2.03;;;22.00;99.90;;;;;;4970040;28;20419;-58
2023/07/20 10:01:26;;;;;;;3.10;1.60;;;22.10;99.90;;;;;;4968263;28;20027;-58
2023/07/20 10:03:54;;;;;;;9.23;1.67;;;21.90;99.90;;;;;;4969195;28;20019;-57
2023/07/20 10:06:24;;;;;;;6.05;2.03;;;21.60;99.90;;;;;;4967565;28;20025;-59
2023/07/20 10:08:52;;;;;;;3.25;1.50;;;21.50;99.90;;;;;;4966211;28;20444;-61
2023/07/20 10:11:20;;;;;;;3.20;1.55;;;21.40;99.90;;;;;;4970765;28;20023;-59
2023/07/20 10:13:49;;;;;;;3.78;1.58;;;21.50;99.90;;;;;;4966641;28;20039;-58
2023/07/20 10:16:28;;;;;;;4.40;1.80;;;22.00;99.90;;;;;;4969423;28;20038;-59
2023/07/20 10:19:03;;;;;;;3.83;2.05;;;22.40;99.90;;;;;;4967286;28;20035;-58
2023/07/20 10:21:30;;;;;;;4.53;1.58;;;22.60;99.90;;;;;;4966032;28;20031;-57
2023/07/20 10:24:00;;;;;;;3.53;1.75;;;22.60;99.90;;;;;;4968011;28;20023;-58
2023/07/20 10:26:26;;;;;;;6.40;1.90;;;22.60;99.90;;;;;;4968370;28;20015;-56
2023/07/20 10:28:52;;;;;;;9.88;1.73;;;22.80;99.90;;;;;;4969193;28;20500;-57
2023/07/20 10:31:19;;;;;;;4.65;1.73;;;22.70;99.90;;;;;;4968538;28;20042;-59
2023/07/20 10:33:45;;;;;;;2.85;1.70;;;22.80;99.90;;;;;;4969843;28;20023;-59
2023/07/20 10:36:12;;;;;;;2.05;1.80;;;22.60;99.90;;;;;;4966777;28;20089;-59
2023/07/20 10:38:46;;;;;;;3.60;1.40;;;22.60;99.90;;;;;;4968999;28;20509;-55
2023/07/20 10:41:29;;;;;;;2.42;1.42;;;22.50;99.90;;;;;;4968147;28;20455;-58
2023/07/20 10:44:03;;;;;;;5.63;1.27;;;22.60;99.90;;;;;;4967077;28;20046;-59
2023/07/20 10:46:43;;;;;;;1.73;1.42;;;22.90;99.90;;;;;;4963762;28;20398;-55
2023/07/20 10:49:10;;;;;;;3.20;1.50;;;23.30;99.90;;;;;;4969529;28;20023;-57
2023/07/20 10:51:41;;;;;;;1.63;1.27;;;23.50;99.90;;;;;;4970507;28;20011;-57
2023/07/20 10:54:34;;;;;;;10.80;1.50;;;23.80;99.90;;;;;;4966407;28;20784;-57
2023/07/20 10:57:23;;;;;;;4.80;1.77;;;23.20;99.90;;;;;;4970646;28;20050;-58
2023/07/20 10:59:49;;;;;;;3.05;1.63;;;22.80;99.90;;;;;;4970997;28;20023;-60
2023/07/20 11:02:19;;;;;;;3.03;1.80;;;22.60;99.90;;;;;;4972266;28;20031;-59
2023/07/20 11:04:46;;;;;;;2.35;1.38;;;22.50;99.90;;;;;;4969915;28;20059;-58
2023/07/20 11:07:37;;;;;;;3.58;1.50;;;22.40;99.90;;;;;;4972866;28;20030;-57
2023/07/20 11:10:14;;;;;;;3.00;1.60;;;22.40;99.90;;;;;;4970356;28;20058;-58
2023/07/20 11:12:40;;;;;;;4.53;2.05;;;22.20;99.90;;;;;;4973009;28;20030;-62
2023/07/20 11:15:06;;;;;;;1.55;1.10;;;22.10;99.90;;;;;;4970983;28;20035;-60
2023/07/20 11:17:33;;;;;;;3.65;1.30;;;22.00;99.90;;;;;;4972487;28;20453;-57
2023/07/20 11:20:03;;;;;;;5.95;1.55;;;22.20;99.90;;;;;;4971368;28;20692;-61
2023/07/20 11:22:31;;;;;;;3.03;1.20;;;22.30;99.90;;;;;;4969984;28;20397;-61
2023/07/20 11:24:57;;;;;;;1.80;1.33;;;22.30;99.90;;;;;;4971958;28;22004;-59
2023/07/20 11:27:23;;;;;;;3.10;1.10;;;22.30;99.90;;;;;;4972423;28;20390;-60
2023/07/20 11:29:50;;;;;;;1.45;1.27;;;22.50;99.90;;;;;;4969954;28;20051;-60
2023/07/20 11:32:23;;;;;;;1.20;1.10;;;22.60;99.90;;;;;;4971280;28;20664;-60
2023/07/20 11:34:49;;;;;;;2.53;1.10;;;22.80;99.90;;;;;;4971349;28;20485;-60
2023/07/20 11:37:15;;;;;;;4.88;1.63;;;22.70;99.90;;;;;;4968817;28;20027;-59
2023/07/20 11:39:41;;;;;;;1.77;1.40;;;22.50;99.90;;;;;;4969401;28;20102;-61
2023/07/20 11:42:07;;;;;;;6.05;1.70;;;22.30;99.90;;;;;;4972036;28;20118;-61
2023/07/20 11:44:33;;;;;;;3.00;1.20;;;22.50;99.90;;;;;;4971042;28;20038;-59
2023/07/20 11:47:10;;;;;;;3.17;1.10;;;22.70;99.90;;;;;;4972223;28;20049;-57
2023/07/20 11:49:39;;;;;;;3.03;1.20;;;22.90;99.90;;;;;;4970744;28;20563;-60
2023/07/20 11:52:07;;;;;;;3.35;1.40;;;23.10;99.90;;;;;;4970701;28;20877;-60
2023/07/20 11:54:34;;;;;;;1.90;1.40;;;23.20;99.90;;;;;;4972819;28;20114;-60
2023/07/20 11:57:04;;;;;;;1.77;0.90;;;23.10;99.90;;;;;;4972872;28;20031;-59
2023/07/20 11:59:31;;;;;;;1.90;1.00;;;23.00;99.90;;;;;;4972665;28;20501;-57
2023/07/20 12:01:57;;;;;;;2.17;1.30;;;23.30;99.90;;;;;;4970156;28;20074;-57
2023/07/20 12:04:23;;;;;;;2.88;1.02;;;23.40;99.90;;;;;;4972953;28;20057;-59
2023/07/20 12:06:48;;;;;;;1.45;0.80;;;23.30;99.90;;;;;;4970899;28;20034;-57
2023/07/20 12:09:16;;;;;;;1.42;1.02;;;23.30;99.90;;;;;;4970353;28;20026;-60
2023/07/20 12:11:44;;;;;;;2.40;1.08;;;23.50;99.90;;;;;;4969482;28;20544;-61
2023/07/20 12:14:10;;;;;;;1.73;0.90;;;23.90;99.90;;;;;;4969594;28;20035;-60
2023/07/20 12:16:37;;;;;;;4.10;1.30;;;23.90;99.90;;;;;;4965089;28;20019;-59
2023/07/20 12:19:05;;;;;;;3.38;1.20;;;23.10;99.90;;;;;;4971834;28;20532;-60
2023/07/20 12:21:31;;;;;;;4.07;2.03;;;23.10;99.90;;;;;;4971236;28;20034;-61
2023/07/20 12:23:58;;;;;;;1.73;1.17;;;23.00;99.90;;;;;;4969482;28;20154;-59
2023/07/20 12:26:25;;;;;;;2.30;1.35;;;22.90;99.90;;;;;;4964425;28;20058;-58
2023/07/20 12:28:51;;;;;;;1.08;0.80;;;22.60;99.90;;;;;;4970287;28;20031;-59
2023/07/20 12:31:16;;;;;;;4.65;1.00;;;22.60;99.90;;;;;;4965240;28;20399;-58
2023/07/20 12:33:42;;;;;;;2.38;0.90;;;22.60;99.90;;;;;;4969892;28;20031;-57
2023/07/20 12:36:09;;;;;;;3.00;1.27;;;22.50;99.90;;;;;;4966923;28;20031;-59
2023/07/20 12:38:35;;;;;;;2.03;1.00;;;22.30;99.90;;;;;;4966562;28;20482;-60
2023/07/20 12:41:01;;;;;;;4.40;1.10;;;22.20;99.90;;;;;;4964166;28;20081;-61
2023/07/20 12:43:28;;;;;;;2.85;0.98;;;22.10;99.90;;;;;;4961638;28;20070;-59